Three Stars — 3ELI2 — position and weather

sailwx.info

Track history (hours):
 
Tides and Currents Weather Stations Pressure Air Temp Water Temp Dewpoint Dewpoint Depression Visibility Wind Speed Wind Dir Waves Ship Positions

Three Stars

Last reported at 2017-Mar-31 00:33 UTC. Time now 2017-Apr-27 16:57 UTC.
Position S 34°46' W 057°33'.
Warning: this ship's position is 27 days out of date.

Length 225 m; draft 10.5 m.

Type: Cargo ship. MMSI: 372950000.

Date/timePositionNaut miles runAvg speedWind from/ knotsBaromVisibWave heightAir tempDewpointWater temp
2017-Mar-31 00:33S 34°46' W 057°33'9 8.7
2017-Mar-30 23:33S 34°44' W 057°43'4 4.1
2017-Mar-30 22:33S 34°44' W 057°48'0 0.0
2017-Mar-30 21:33S 34°44' W 057°48'0 0.0
2017-Mar-30 20:33S 34°44' W 057°48'0 0.2
2017-Mar-30 19:33S 34°44' W 057°48'0 0.1
2017-Mar-30 18:33S 34°44' W 057°48'0 0.0
2017-Mar-30 17:33S 34°44' W 057°48'0 0.0
2017-Mar-30 16:33S 34°44' W 057°48'0 0.0
2017-Mar-30 15:33S 34°44' W 057°48'0 0.0
2017-Mar-30 14:33S 34°44' W 057°48'0 0.0
2017-Mar-30 13:33S 34°44' W 057°48'0 0.0
2017-Mar-30 12:33S 34°44' W 057°48'0 0.1
2017-Mar-30 11:33S 34°44' W 057°48'0 0.1
2017-Mar-30 10:33S 34°44' W 057°48'0 0.1
2017-Mar-30 09:33S 34°44' W 057°48'0 0.0
2017-Mar-30 08:33S 34°44' W 057°48'0 0.0
2017-Mar-30 07:33S 34°44' W 057°48'0 0.1
2017-Mar-30 06:33S 34°44' W 057°48'0 0.1
2017-Mar-30 05:33S 34°44' W 057°48'0 0.0
2017-Mar-30 04:30S 34°44' W 057°48'0 0.1
2017-Mar-30 03:33S 34°44' W 057°48'0 0.1
2017-Mar-30 02:33S 34°44' W 057°48'0 0.1
2017-Mar-30 01:33S 34°44' W 057°48'0 0.1
2017-Mar-30 00:33S 34°44' W 057°48'0 0.1
2017-Mar-29 23:33S 34°44' W 057°48'0 0.0
2017-Mar-29 22:33S 34°44' W 057°48'0 0.0
2017-Mar-29 21:33S 34°44' W 057°48'0 0.0
2017-Mar-29 20:30S 34°44' W 057°48'0 0.0
2017-Mar-29 19:33S 34°44' W 057°48'0 0.1
2017-Mar-29 18:33S 34°44' W 057°48'0 0.2
2017-Mar-29 17:33S 34°44' W 057°48'2 2.4
2017-Mar-29 16:33S 34°43' W 057°50'1010.4
2017-Mar-29 15:33S 34°40' W 058°02'1110.9
2017-Mar-29 14:33S 34°36' W 058°15'  
2017-Mar-25 01:32S 33°53' W 058°27'1311.0
2017-Mar-25 00:21S 34°05' W 058°20'810.7
2017-Mar-24 23:34S 34°11' W 058°13'1110.8
2017-Mar-24 22:33S 34°17' W 058°02'1111.3
2017-Mar-24 21:33S 34°28' W 057°57'1211.8
2017-Mar-24 20:33S 34°40' W 057°58'10 9.6
2017-Mar-24 19:33S 34°45' W 057°48'  
Track history (hours):
 
Tides and Currents Weather Stations Pressure Air Temp Water Temp Dewpoint Dewpoint Depression Visibility Wind Speed Wind Dir Waves Ship Positions

Three Stars

Last reported at 2017-Mar-31 00:33 UTC. Time now 2017-Apr-27 16:57 UTC.
Position S 34°46' W 057°33'.
Warning: this ship's position is 27 days out of date.

Length 225 m; draft 10.5 m.

Type: Cargo ship. MMSI: 372950000.

Date/timePositionNaut miles runAvg speedWind from/ knotsBaromVisibWave heightAir tempDewpointWater temp
2017-Mar-31 00:33S 34°46' W 057°33'9 8.7
2017-Mar-30 23:33S 34°44' W 057°43'4 4.1
2017-Mar-30 22:33S 34°44' W 057°48'0 0.0
2017-Mar-30 21:33S 34°44' W 057°48'0 0.0
2017-Mar-30 20:33S 34°44' W 057°48'0 0.2
2017-Mar-30 19:33S 34°44' W 057°48'0 0.1
2017-Mar-30 18:33S 34°44' W 057°48'0 0.0
2017-Mar-30 17:33S 34°44' W 057°48'0 0.0
2017-Mar-30 16:33S 34°44' W 057°48'0 0.0
2017-Mar-30 15:33S 34°44' W 057°48'0 0.0
2017-Mar-30 14:33S 34°44' W 057°48'0 0.0
2017-Mar-30 13:33S 34°44' W 057°48'0 0.0
2017-Mar-30 12:33S 34°44' W 057°48'0 0.1
2017-Mar-30 11:33S 34°44' W 057°48'0 0.1
2017-Mar-30 10:33S 34°44' W 057°48'0 0.1
2017-Mar-30 09:33S 34°44' W 057°48'0 0.0
2017-Mar-30 08:33S 34°44' W 057°48'0 0.0
2017-Mar-30 07:33S 34°44' W 057°48'0 0.1
2017-Mar-30 06:33S 34°44' W 057°48'0 0.1
2017-Mar-30 05:33S 34°44' W 057°48'0 0.0
2017-Mar-30 04:30S 34°44' W 057°48'0 0.1
2017-Mar-30 03:33S 34°44' W 057°48'0 0.1
2017-Mar-30 02:33S 34°44' W 057°48'0 0.1
2017-Mar-30 01:33S 34°44' W 057°48'0 0.1
2017-Mar-30 00:33S 34°44' W 057°48'0 0.1
2017-Mar-29 23:33S 34°44' W 057°48'0 0.0
2017-Mar-29 22:33S 34°44' W 057°48'0 0.0
2017-Mar-29 21:33S 34°44' W 057°48'0 0.0
2017-Mar-29 20:30S 34°44' W 057°48'0 0.0
2017-Mar-29 19:33S 34°44' W 057°48'0 0.1
2017-Mar-29 18:33S 34°44' W 057°48'0 0.2
2017-Mar-29 17:33S 34°44' W 057°48'2 2.4
2017-Mar-29 16:33S 34°43' W 057°50'1010.4
2017-Mar-29 15:33S 34°40' W 058°02'1110.9
2017-Mar-29 14:33S 34°36' W 058°15'  
2017-Mar-25 01:32S 33°53' W 058°27'1311.0
2017-Mar-25 00:21S 34°05' W 058°20'810.7
2017-Mar-24 23:34S 34°11' W 058°13'1110.8
2017-Mar-24 22:33S 34°17' W 058°02'1111.3
2017-Mar-24 21:33S 34°28' W 057°57'1211.8
2017-Mar-24 20:33S 34°40' W 057°58'10 9.6
2017-Mar-24 19:33S 34°45' W 057°48'  

Dump ship's entire track history